createdAt,value
2019-04-21T00:01:52.145Z,28.60
2019-04-21T00:04:48.308Z,26.57
2019-04-21T00:07:37.870Z,27.77
2019-04-21T00:10:18.489Z,26.80
2019-04-21T00:13:08.068Z,27.50
2019-04-21T00:15:46.752Z,27.55
2019-04-21T00:21:51.132Z,28.50
2019-04-21T00:24:46.142Z,29.00
2019-04-21T00:27:34.025Z,29.47
2019-04-21T00:30:30.330Z,30.30
2019-04-21T00:33:00.202Z,30.83
2019-04-21T00:35:46.493Z,31.53
2019-04-21T00:38:51.369Z,31.17
2019-04-21T00:41:30.798Z,31.77
2019-04-21T00:44:06.526Z,31.60
2019-04-21T00:46:58.364Z,32.73
2019-04-21T00:49:43.221Z,33.97
2019-04-21T00:53:05.657Z,34.73
2019-04-21T00:58:53.712Z,33.70
2019-04-21T01:01:42.636Z,34.77
2019-04-21T01:04:23.579Z,33.93
2019-04-21T01:07:18.037Z,34.80
2019-04-21T01:09:48.555Z,36.60
2019-04-21T01:12:43.007Z,35.57
2019-04-21T01:15:35.193Z,35.67
2019-04-21T01:18:16.522Z,36.23
2019-04-21T01:20:37.874Z,37.95
2019-04-21T01:23:21.655Z,40.13
2019-04-21T01:26:17.775Z,42.73
2019-04-21T01:29:05.387Z,45.00
2019-04-21T01:31:57.316Z,43.60
2019-04-21T01:34:45.138Z,43.23
2019-04-21T01:37:34.412Z,40.70
2019-04-21T01:40:25.921Z,40.83
2019-04-21T01:43:04.941Z,38.73
2019-04-21T01:45:49.396Z,38.30
2019-04-21T01:48:33.260Z,37.67
2019-04-21T01:51:18.738Z,40.00
2019-04-21T01:54:48.247Z,44.17
2019-04-21T01:57:59.394Z,42.43
2019-04-21T02:03:52.883Z,40.25
2019-04-21T02:06:33.766Z,47.13
2019-04-21T02:09:14.880Z,45.28
2019-04-21T02:12:08.799Z,46.88
2019-04-21T02:14:45.761Z,48.23
2019-04-21T02:17:23.343Z,51.23
2019-04-21T02:20:08.933Z,50.07
2019-04-21T02:23:12.786Z,51.47
2019-04-21T02:25:47.129Z,50.03
2019-04-21T02:28:40.404Z,48.48
2019-04-21T02:31:29.155Z,46.83
2019-04-21T02:34:09.148Z,48.13
2019-04-21T02:37:14.369Z,48.63
2019-04-21T02:42:31.520Z,48.83
2019-04-21T02:45:19.088Z,48.73
2019-04-21T02:50:47.607Z,48.15
2019-04-21T02:53:45.807Z,48.73
2019-04-21T02:56:18.071Z,46.10
2019-04-21T03:02:36.820Z,42.43
2019-04-21T03:08:28.057Z,42.37
2019-04-21T03:13:57.357Z,41.92
2019-04-21T03:16:47.127Z,39.93
2019-04-21T03:19:28.909Z,40.30
2019-04-21T03:22:18.242Z,40.07
2019-04-21T03:30:44.985Z,41.60
2019-04-21T03:38:43.032Z,40.03
2019-04-21T03:41:31.697Z,39.17
2019-04-21T03:44:16.982Z,39.00
2019-04-21T03:47:04.432Z,37.57
2019-04-21T03:49:47.368Z,41.67
2019-04-21T03:58:41.545Z,39.87
2019-04-21T04:01:41.107Z,40.70
2019-04-21T04:04:40.593Z,40.73
2019-04-21T04:07:42.462Z,39.58
2019-04-21T04:10:24.502Z,41.57
2019-04-21T04:13:04.627Z,41.23
2019-04-21T04:18:51.179Z,40.13
2019-04-21T04:21:30.825Z,40.13
2019-04-21T04:24:22.270Z,40.50
2019-04-21T04:26:57.441Z,39.55
2019-04-21T04:29:42.312Z,40.95
2019-04-21T04:32:28.623Z,41.20
2019-04-21T04:35:40.531Z,40.53
2019-04-21T04:38:03.671Z,40.27
2019-04-21T04:41:16.249Z,42.17
2019-04-21T04:44:11.181Z,40.47
2019-04-21T04:47:01.871Z,41.00
2019-04-21T05:03:40.175Z,40.50
2019-04-21T05:06:42.091Z,41.10
2019-04-21T05:09:31.592Z,40.63
2019-04-21T05:12:11.617Z,41.88
2019-04-21T05:15:07.788Z,42.07
2019-04-21T05:20:29.880Z,43.23
2019-04-21T05:23:11.942Z,41.90
2019-04-21T05:25:51.142Z,42.73
2019-04-21T05:28:32.884Z,39.87
2019-04-21T05:31:58.489Z,41.20
2019-04-21T05:40:39.912Z,39.73
2019-04-21T05:43:32.441Z,39.73
2019-04-21T05:46:21.648Z,39.63
2019-04-21T05:49:05.050Z,39.00
2019-04-21T05:51:58.333Z,38.10
2019-04-21T05:54:56.996Z,39.23
2019-04-21T05:57:33.448Z,39.07
2019-04-21T06:00:23.550Z,38.55
2019-04-21T06:03:09.859Z,38.13
2019-04-21T06:06:07.286Z,36.50
2019-04-21T06:08:53.982Z,34.53
2019-04-21T06:11:28.813Z,34.63
2019-04-21T06:14:14.346Z,32.10
2019-04-21T06:17:08.077Z,29.43
2019-04-21T06:20:01.890Z,30.23
2019-04-21T06:22:46.768Z,25.43
2019-04-21T06:25:49.579Z,27.93
2019-04-21T06:28:22.379Z,26.30
2019-04-21T06:31:19.971Z,21.57
2019-04-21T06:33:48.780Z,21.60
2019-04-21T06:42:21.171Z,18.40
2019-04-21T06:45:13.033Z,16.13
2019-04-21T06:48:02.825Z,16.83
2019-04-21T06:50:51.066Z,15.93
2019-04-21T06:53:40.356Z,14.93
2019-04-21T06:56:13.890Z,14.47
2019-04-21T06:59:01.344Z,14.75
2019-04-21T07:01:48.786Z,15.03
2019-04-21T07:04:50.116Z,15.43
2019-04-21T07:07:17.183Z,15.10
2019-04-21T07:10:10.689Z,14.77
2019-04-21T07:12:44.917Z,15.50
2019-04-21T07:15:41.928Z,15.43
2019-04-21T07:18:19.150Z,14.78
2019-04-21T07:21:06.139Z,14.37
2019-04-21T07:23:59.406Z,14.27
2019-04-21T07:26:47.711Z,14.43
2019-04-21T07:29:28.893Z,13.47
2019-04-21T07:32:09.341Z,14.37
2019-04-21T07:35:00.151Z,13.20
2019-04-21T07:37:41.063Z,13.20
2019-04-21T07:40:24.271Z,12.60
2019-04-21T07:43:12.124Z,13.80
2019-04-21T07:45:56.918Z,14.18
2019-04-21T07:48:58.752Z,14.57
2019-04-21T07:55:06.232Z,13.57
2019-04-21T07:57:39.426Z,13.38
2019-04-21T08:03:28.254Z,13.10
2019-04-21T08:06:18.912Z,13.97
2019-04-21T08:09:00.953Z,12.73
2019-04-21T08:11:41.636Z,12.90
2019-04-21T08:14:42.875Z,12.57
2019-04-21T08:17:16.493Z,12.60
2019-04-21T08:20:00.273Z,12.23
2019-04-21T08:22:51.088Z,11.43
2019-04-21T08:25:40.342Z,11.07
2019-04-21T08:28:19.176Z,11.18
2019-04-21T08:31:07.967Z,11.63
2019-04-21T08:33:55.407Z,11.47
2019-04-21T08:36:40.502Z,11.40
2019-04-21T08:39:30.245Z,12.03
2019-04-21T08:42:15.540Z,11.70
2019-04-21T08:45:02.097Z,10.77
2019-04-21T08:47:47.770Z,11.47
2019-04-21T08:50:31.267Z,10.70
2019-04-21T08:53:14.433Z,10.35
2019-04-21T08:56:27.717Z,11.07
2019-04-21T09:05:45.076Z,11.37
2019-04-21T09:08:25.120Z,10.70
2019-04-21T09:11:14.933Z,11.00
2019-04-21T09:13:55.930Z,9.60
2019-04-21T09:16:41.132Z,9.50
2019-04-21T09:19:38.543Z,9.57
2019-04-21T09:22:10.917Z,8.70
2019-04-21T09:24:55.731Z,8.97
2019-04-21T09:27:41.933Z,9.63
2019-04-21T09:30:13.457Z,7.93
2019-04-21T09:33:00.083Z,8.57
2019-04-21T09:35:49.162Z,8.10
2019-04-21T09:38:37.076Z,7.87
2019-04-21T09:41:18.957Z,6.43
2019-04-21T09:44:03.013Z,6.57
2019-04-21T09:46:54.013Z,6.13
2019-04-21T09:49:37.214Z,4.90
2019-04-21T09:52:25.585Z,5.25
2019-04-21T09:55:15.266Z,5.43
2019-04-21T09:57:57.203Z,9.70
2019-04-21T10:00:31.285Z,6.90
2019-04-21T10:03:23.065Z,5.80
2019-04-21T10:06:07.013Z,5.70
2019-04-21T10:09:01.149Z,6.10
2019-04-21T10:11:37.615Z,5.90
2019-04-21T10:14:22.023Z,5.80
2019-04-21T10:17:25.312Z,6.33
2019-04-21T10:20:11.610Z,6.60
2019-04-21T10:23:01.128Z,6.10
2019-04-21T10:25:46.365Z,6.30
2019-04-21T10:28:35.109Z,5.83
2019-04-21T10:31:32.378Z,6.07
2019-04-21T10:34:17.010Z,5.93
2019-04-21T10:37:02.762Z,6.62
2019-04-21T10:39:47.515Z,6.30
2019-04-21T10:42:33.127Z,6.77
2019-04-21T10:45:17.330Z,7.50
2019-04-21T10:48:03.053Z,7.20
2019-04-21T10:50:35.387Z,6.80
2019-04-21T10:53:23.071Z,6.72
2019-04-21T10:56:15.423Z,6.47
2019-04-21T10:58:54.138Z,6.60
2019-04-21T11:01:41.070Z,7.97
2019-04-21T11:04:33.646Z,8.05
2019-04-21T11:07:52.161Z,8.55
2019-04-21T11:10:34.043Z,8.03
2019-04-21T11:13:18.924Z,8.73
2019-04-21T11:16:03.487Z,8.40
2019-04-21T11:18:48.709Z,8.45
2019-04-21T11:21:34.618Z,8.33
2019-04-21T11:24:20.794Z,8.20
2019-04-21T11:27:06.737Z,8.67
2019-04-21T11:29:51.688Z,8.53
2019-04-21T11:32:35.481Z,9.83
2019-04-21T11:35:19.394Z,9.73
2019-04-21T11:38:14.430Z,9.88
2019-04-21T11:40:40.023Z,9.97
2019-04-21T11:43:24.717Z,9.58
2019-04-21T11:46:08.757Z,9.33
2019-04-21T11:48:52.768Z,8.63
2019-04-21T11:51:37.527Z,7.90
2019-04-21T11:54:22.566Z,7.30
2019-04-21T11:57:12.394Z,6.58
2019-04-21T11:59:53.570Z,6.13
2019-04-21T12:02:37.970Z,7.13
2019-04-21T12:05:23.317Z,6.50
2019-04-21T12:08:18.957Z,5.80
2019-04-21T12:10:53.497Z,5.47
2019-04-21T12:13:38.197Z,5.00
2019-04-21T12:16:23.490Z,5.17
2019-04-21T12:19:08.936Z,5.07
2019-04-21T12:22:05.000Z,4.47
2019-04-21T12:24:39.696Z,5.23
2019-04-21T12:27:25.443Z,5.00
2019-04-21T12:30:11.414Z,5.13
2019-04-21T12:33:02.110Z,4.97
2019-04-21T12:35:55.736Z,5.08
2019-04-21T12:38:46.913Z,5.13
2019-04-21T12:41:26.696Z,5.10
2019-04-21T12:44:11.183Z,4.70
2019-04-21T12:46:56.345Z,4.90
2019-04-21T12:49:41.496Z,4.93
2019-04-21T12:52:27.248Z,4.73
2019-04-21T12:55:11.504Z,4.60
2019-04-21T12:57:45.460Z,4.60
2019-04-21T13:00:31.208Z,4.77
2019-04-21T13:03:17.389Z,5.00
2019-04-21T13:06:05.904Z,4.37
2019-04-21T13:09:01.477Z,4.50
2019-04-21T13:11:51.001Z,4.25
2019-04-21T13:14:35.824Z,4.73
2019-04-21T13:17:21.465Z,4.80
2019-04-21T13:19:54.240Z,4.30
2019-04-21T13:22:37.958Z,4.57
2019-04-21T13:25:21.634Z,4.57
2019-04-21T13:28:07.051Z,4.37
2019-04-21T13:30:51.776Z,4.60
2019-04-21T13:33:38.271Z,4.13
2019-04-21T13:36:27.631Z,4.13
2019-04-21T13:42:39.421Z,4.10
2019-04-21T13:45:18.312Z,3.90
2019-04-21T13:48:02.366Z,4.10
2019-04-21T13:50:47.235Z,3.60
2019-04-21T13:53:33.046Z,4.07
2019-04-21T13:56:18.456Z,3.77
2019-04-21T13:59:02.393Z,3.97
2019-04-21T14:01:35.944Z,3.83
2019-04-21T14:04:31.510Z,3.20
2019-04-21T14:13:12.138Z,3.30
2019-04-21T14:15:56.266Z,3.30
2019-04-21T14:18:40.754Z,3.37
2019-04-21T14:21:25.637Z,3.20
2019-04-21T14:24:10.860Z,3.20
2019-04-21T14:26:58.380Z,3.40
2019-04-21T14:29:43.858Z,3.40
2019-04-21T14:32:29.515Z,3.80
2019-04-21T14:35:14.794Z,3.53
2019-04-21T14:38:00.276Z,3.03
2019-04-21T14:40:44.944Z,3.40
2019-04-21T14:43:30.270Z,3.40
2019-04-21T14:49:24.643Z,3.33
2019-04-21T14:52:16.850Z,3.07
2019-04-21T14:55:20.911Z,3.40
2019-04-21T14:58:19.141Z,3.37
2019-04-21T15:01:10.769Z,3.13
2019-04-21T15:03:55.498Z,3.37
2019-04-21T15:06:41.261Z,3.30
2019-04-21T15:09:25.325Z,3.40
2019-04-21T15:12:11.931Z,3.60
2019-04-21T15:14:56.354Z,2.93
2019-04-21T15:17:40.206Z,2.80
2019-04-21T15:20:26.888Z,2.90
2019-04-21T15:23:12.338Z,2.80
2019-04-21T15:25:56.572Z,2.98
2019-04-21T15:28:42.480Z,2.67
2019-04-21T15:31:25.703Z,2.58
2019-04-21T15:34:15.022Z,2.60
2019-04-21T15:36:59.894Z,2.63
2019-04-21T15:39:46.807Z,2.70
2019-04-21T15:42:30.795Z,2.70
2019-04-21T15:45:16.849Z,2.37
2019-04-21T15:48:00.637Z,2.90
2019-04-21T15:50:44.186Z,2.50
2019-04-21T15:59:48.508Z,3.00
2019-04-21T16:02:46.739Z,3.07
2019-04-21T16:05:32.892Z,2.58
2019-04-21T16:08:18.222Z,2.43
2019-04-21T16:11:04.610Z,2.37
2019-04-21T16:13:48.127Z,2.63
2019-04-21T16:16:33.823Z,2.37
2019-04-21T16:19:18.455Z,2.40
2019-04-21T16:22:04.675Z,2.70
2019-04-21T16:24:50.525Z,3.00
2019-04-21T16:27:35.194Z,3.98
2019-04-21T16:30:21.568Z,4.10
2019-04-21T16:33:06.324Z,3.80
2019-04-21T16:35:51.774Z,4.43
2019-04-21T16:38:37.584Z,3.72
2019-04-21T16:41:29.411Z,2.40
2019-04-21T16:44:13.857Z,2.90
2019-04-21T16:47:01.358Z,2.65
2019-04-21T16:49:47.500Z,2.40
2019-04-21T16:52:36.431Z,2.50
2019-04-21T16:55:41.454Z,2.10
2019-04-21T16:58:30.930Z,2.10
2019-04-21T17:01:34.253Z,2.07
2019-04-21T17:04:20.263Z,2.37
2019-04-21T17:07:05.199Z,2.10
2019-04-21T17:09:50.659Z,1.87
2019-04-21T17:12:37.363Z,2.23
2019-04-21T17:15:35.581Z,2.10
2019-04-21T17:18:29.916Z,2.15
2019-04-21T17:20:59.704Z,2.03
2019-04-21T17:23:40.720Z,2.23
2019-04-21T17:26:27.087Z,2.20
2019-04-21T17:29:12.251Z,2.43
2019-04-21T17:31:57.357Z,2.60
2019-04-21T17:34:43.800Z,2.23
2019-04-21T17:37:29.195Z,2.90
2019-04-21T17:40:24.071Z,2.23
2019-04-21T17:43:13.870Z,2.13
2019-04-21T17:45:55.198Z,2.30
2019-04-21T17:48:40.626Z,2.50
2019-04-21T17:51:54.600Z,2.40
2019-04-21T17:54:54.745Z,2.10
2019-04-21T17:57:57.741Z,2.30
2019-04-21T18:01:06.127Z,2.23
2019-04-21T18:03:53.570Z,2.35
2019-04-21T18:06:14.286Z,2.10
2019-04-21T18:09:21.897Z,2.50
2019-04-21T18:12:03.379Z,2.57
2019-04-21T18:14:32.737Z,2.90
2019-04-21T18:17:18.327Z,3.85
2019-04-21T18:20:04.114Z,4.10
2019-04-21T18:23:20.868Z,5.00
2019-04-21T18:26:01.984Z,4.90
2019-04-21T18:28:40.849Z,6.28
2019-04-21T18:31:27.033Z,6.43
2019-04-21T18:34:34.172Z,4.30
2019-04-21T18:37:42.754Z,3.57
2019-04-21T18:40:49.071Z,3.13
2019-04-21T18:43:56.725Z,3.20
2019-04-21T18:47:14.737Z,3.80
2019-04-21T18:49:56.206Z,4.60
2019-04-21T18:53:03.320Z,4.83
2019-04-21T18:55:48.221Z,5.40
2019-04-21T18:58:30.803Z,6.00
2019-04-21T19:01:20.726Z,6.73
2019-04-21T19:04:05.358Z,7.03
2019-04-21T19:07:02.670Z,6.62
2019-04-21T19:10:03.602Z,7.87
2019-04-21T19:13:09.181Z,6.33
2019-04-21T19:15:30.027Z,7.17
2019-04-21T19:18:35.145Z,6.97
2019-04-21T19:21:08.208Z,6.70
2019-04-21T19:23:58.117Z,7.40
2019-04-21T19:26:49.178Z,7.80
2019-04-21T19:29:28.800Z,6.87
2019-04-21T19:32:14.869Z,7.50
2019-04-21T19:34:43.127Z,7.37
2019-04-21T19:37:29.775Z,7.72
2019-04-21T19:40:30.858Z,7.10
2019-04-21T19:43:07.856Z,8.23
2019-04-21T19:46:03.035Z,7.83
2019-04-21T19:48:55.278Z,7.78
2019-04-21T19:51:33.014Z,7.93
2019-04-21T19:54:13.324Z,7.70
2019-04-21T19:56:49.011Z,7.10
2019-04-21T19:59:41.772Z,7.63
2019-04-21T20:02:08.864Z,7.85
2019-04-21T20:05:10.680Z,7.13
2019-04-21T20:08:06.661Z,9.58
2019-04-21T20:10:55.496Z,12.30
2019-04-21T20:13:56.904Z,11.67
2019-04-21T20:16:30.982Z,13.73
2019-04-21T20:19:01.365Z,18.70
2019-04-21T20:21:41.068Z,22.10
2019-04-21T20:24:28.316Z,22.33
2019-04-21T20:27:19.399Z,21.85
2019-04-21T20:30:13.500Z,22.57
2019-04-21T20:33:05.977Z,21.63
2019-04-21T20:35:51.952Z,20.93
2019-04-21T20:38:28.314Z,20.77
2019-04-21T20:41:15.860Z,20.47
2019-04-21T20:44:09.861Z,21.00
2019-04-21T20:46:40.270Z,21.33
2019-04-21T20:49:40.417Z,21.37
2019-04-21T20:52:41.537Z,21.07
2019-04-21T20:55:26.461Z,20.30
2019-04-21T20:58:15.098Z,19.30
2019-04-21T21:01:32.994Z,19.50
2019-04-21T21:03:51.804Z,22.03
2019-04-21T21:06:54.409Z,21.30
2019-04-21T21:09:41.361Z,19.13
2019-04-21T21:15:04.151Z,20.83
2019-04-21T21:18:06.037Z,22.60
2019-04-21T21:20:49.394Z,21.93
2019-04-21T21:23:36.213Z,21.67
2019-04-21T21:26:21.939Z,18.25
2019-04-21T21:28:57.483Z,18.27
2019-04-21T21:32:04.248Z,17.00
2019-04-21T21:34:41.000Z,15.77
2019-04-21T21:40:12.247Z,14.67
2019-04-21T21:42:43.429Z,15.43
2019-04-21T21:45:17.936Z,15.17
2019-04-21T21:48:27.438Z,14.40
2019-04-21T21:51:05.876Z,14.43
2019-04-21T21:53:42.679Z,15.03
2019-04-21T21:56:32.280Z,13.23
2019-04-21T21:59:37.976Z,13.63
2019-04-21T22:02:29.328Z,12.07
2019-04-21T22:05:11.098Z,12.20
2019-04-21T22:07:52.214Z,13.20
2019-04-21T22:10:37.299Z,12.10
2019-04-21T22:13:31.295Z,10.27
2019-04-21T22:16:12.244Z,10.97
2019-04-21T22:19:21.922Z,10.47
2019-04-21T22:21:57.857Z,9.43
2019-04-21T22:24:41.521Z,10.13
2019-04-21T22:27:10.808Z,10.47
2019-04-21T22:29:59.383Z,9.93
2019-04-21T22:32:51.258Z,9.67
2019-04-21T22:35:34.439Z,9.30
2019-04-21T22:38:28.296Z,9.73
2019-04-21T22:41:11.978Z,9.00
2019-04-21T22:43:49.347Z,9.10
2019-04-21T22:46:30.632Z,9.33
2019-04-21T22:49:21.453Z,8.40
2019-04-21T22:52:20.957Z,9.20
2019-04-21T22:55:18.725Z,9.33
2019-04-21T22:58:02.048Z,8.87
2019-04-21T23:01:05.243Z,8.90
2019-04-21T23:04:05.203Z,8.83
2019-04-21T23:07:07.210Z,8.43
2019-04-21T23:09:47.607Z,8.35
2019-04-21T23:12:35.104Z,9.48
2019-04-21T23:15:23.129Z,9.00
2019-04-21T23:18:23.452Z,8.47
2019-04-21T23:21:06.164Z,7.80
2019-04-21T23:23:57.174Z,8.30
2019-04-21T23:26:42.062Z,8.13
2019-04-21T23:30:09.874Z,7.58
2019-04-21T23:32:30.414Z,7.57
2019-04-21T23:35:16.953Z,7.50
2019-04-21T23:37:52.935Z,7.40
2019-04-21T23:40:33.071Z,8.37
2019-04-21T23:43:23.862Z,8.03
2019-04-21T23:46:11.921Z,7.00
2019-04-21T23:48:56.220Z,7.43
2019-04-21T23:51:43.240Z,7.58
2019-04-21T23:54:19.561Z,7.50
2019-04-21T23:57:11.930Z,7.62
2019-04-21T23:59:55.398Z,7.20
